sensor_id;sensor_type;location;lat;lon;timestamp;P1;durP1;ratioP1;P2;durP2;ratioP2
8399;SDS011;4237;47.030;15.396;2023-02-01T00:00:50;14.70;;;7.07;;
8399;SDS011;4237;47.030;15.396;2023-02-01T00:03:18;17.17;;;7.33;;
8399;SDS011;4237;47.030;15.396;2023-02-01T00:05:59;16.10;;;7.20;;
8399;SDS011;4237;47.030;15.396;2023-02-01T00:08:27;13.93;;;7.03;;
8399;SDS011;4237;47.030;15.396;2023-02-01T00:10:59;15.80;;;7.13;;
8399;SDS011;4237;47.030;15.396;2023-02-01T00:13:29;16.17;;;7.23;;
8399;SDS011;4237;47.030;15.396;2023-02-01T00:16:13;12.20;;;6.47;;
8399;SDS011;4237;47.030;15.396;2023-02-01T00:18:36;14.70;;;7.20;;
8399;SDS011;4237;47.030;15.396;2023-02-01T00:21:04;13.27;;;6.77;;
8399;SDS011;4237;47.030;15.396;2023-02-01T00:23:33;12.70;;;6.40;;
8399;SDS011;4237;47.030;15.396;2023-02-01T00:26:02;19.23;;;6.73;;
8399;SDS011;4237;47.030;15.396;2023-02-01T00:28:30;13.13;;;6.80;;
8399;SDS011;4237;47.030;15.396;2023-02-01T00:31:00;12.53;;;6.90;;
8399;SDS011;4237;47.030;15.396;2023-02-01T00:33:29;15.13;;;7.47;;
8399;SDS011;4237;47.030;15.396;2023-02-01T00:36:03;13.20;;;6.83;;
8399;SDS011;4237;47.030;15.396;2023-02-01T00:38:28;13.83;;;7.03;;
8399;SDS011;4237;47.030;15.396;2023-02-01T00:41:31;11.83;;;6.57;;
8399;SDS011;4237;47.030;15.396;2023-02-01T00:43:32;15.03;;;6.47;;
8399;SDS011;4237;47.030;15.396;2023-02-01T00:46:01;11.43;;;6.57;;
8399;SDS011;4237;47.030;15.396;2023-02-01T00:48:29;11.80;;;6.27;;
8399;SDS011;4237;47.030;15.396;2023-02-01T00:51:01;13.97;;;5.47;;
8399;SDS011;4237;47.030;15.396;2023-02-01T00:53:29;11.07;;;6.27;;
8399;SDS011;4237;47.030;15.396;2023-02-01T00:55:57;10.73;;;5.60;;
8399;SDS011;4237;47.030;15.396;2023-02-01T00:58:26;11.20;;;6.30;;
8399;SDS011;4237;47.030;15.396;2023-02-01T01:01:01;14.20;;;6.90;;
8399;SDS011;4237;47.030;15.396;2023-02-01T01:03:31;12.67;;;6.40;;
8399;SDS011;4237;47.030;15.396;2023-02-01T01:06:03;10.33;;;6.03;;
8399;SDS011;4237;47.030;15.396;2023-02-01T01:08:31;13.57;;;5.97;;
8399;SDS011;4237;47.030;15.396;2023-02-01T01:11:07;14.77;;;6.40;;
8399;SDS011;4237;47.030;15.396;2023-02-01T01:13:35;13.80;;;5.83;;
8399;SDS011;4237;47.030;15.396;2023-02-01T01:16:04;11.27;;;5.67;;
8399;SDS011;4237;47.030;15.396;2023-02-01T01:18:33;11.40;;;6.03;;
8399;SDS011;4237;47.030;15.396;2023-02-01T01:21:03;10.00;;;5.50;;
8399;SDS011;4237;47.030;15.396;2023-02-01T01:23:31;9.37;;;5.60;;
8399;SDS011;4237;47.030;15.396;2023-02-01T01:25:59;7.60;;;5.13;;
8399;SDS011;4237;47.030;15.396;2023-02-01T01:28:28;11.33;;;5.43;;
8399;SDS011;4237;47.030;15.396;2023-02-01T01:30:56;10.07;;;4.73;;
8399;SDS011;4237;47.030;15.396;2023-02-01T01:33:24;10.50;;;5.07;;
8399;SDS011;4237;47.030;15.396;2023-02-01T01:35:52;7.67;;;4.40;;
8399;SDS011;4237;47.030;15.396;2023-02-01T01:38:20;13.57;;;5.10;;
8399;SDS011;4237;47.030;15.396;2023-02-01T01:40:49;9.07;;;5.20;;
8399;SDS011;4237;47.030;15.396;2023-02-01T01:43:19;8.13;;;4.77;;
8399;SDS011;4237;47.030;15.396;2023-02-01T01:45:49;11.10;;;5.43;;
8399;SDS011;4237;47.030;15.396;2023-02-01T01:48:24;9.80;;;4.13;;
8399;SDS011;4237;47.030;15.396;2023-02-01T01:50:52;9.20;;;5.40;;
8399;SDS011;4237;47.030;15.396;2023-02-01T01:53:22;9.93;;;5.27;;
8399;SDS011;4237;47.030;15.396;2023-02-01T01:55:50;10.70;;;5.50;;
8399;SDS011;4237;47.030;15.396;2023-02-01T01:58:20;9.13;;;5.33;;
8399;SDS011;4237;47.030;15.396;2023-02-01T02:00:49;12.87;;;6.00;;
8399;SDS011;4237;47.030;15.396;2023-02-01T02:03:18;13.33;;;4.90;;
8399;SDS011;4237;47.030;15.396;2023-02-01T02:05:52;8.17;;;5.20;;
8399;SDS011;4237;47.030;15.396;2023-02-01T02:08:17;10.70;;;5.80;;
8399;SDS011;4237;47.030;15.396;2023-02-01T02:10:48;9.40;;;5.37;;
8399;SDS011;4237;47.030;15.396;2023-02-01T02:13:36;13.30;;;5.30;;
8399;SDS011;4237;47.030;15.396;2023-02-01T02:19:09;11.13;;;5.57;;
8399;SDS011;4237;47.030;15.396;2023-02-01T02:22:00;10.87;;;6.00;;
8399;SDS011;4237;47.030;15.396;2023-02-01T02:26:38;13.27;;;6.53;;
8399;SDS011;4237;47.030;15.396;2023-02-01T02:34:39;11.33;;;6.57;;
8399;SDS011;4237;47.030;15.396;2023-02-01T02:40:00;16.00;;;6.90;;
8399;SDS011;4237;47.030;15.396;2023-02-01T02:42:29;13.10;;;6.57;;
8399;SDS011;4237;47.030;15.396;2023-02-01T02:45:19;15.17;;;6.70;;
8399;SDS011;4237;47.030;15.396;2023-02-01T02:51:27;11.30;;;6.73;;
8399;SDS011;4237;47.030;15.396;2023-02-01T02:53:32;17.13;;;6.90;;
8399;SDS011;4237;47.030;15.396;2023-02-01T02:56:16;16.37;;;6.93;;
8399;SDS011;4237;47.030;15.396;2023-02-01T02:59:04;12.90;;;7.20;;
8399;SDS011;4237;47.030;15.396;2023-02-01T03:01:52;11.77;;;7.20;;
8399;SDS011;4237;47.030;15.396;2023-02-01T03:04:38;14.60;;;7.03;;
8399;SDS011;4237;47.030;15.396;2023-02-01T03:07:15;13.03;;;6.80;;
8399;SDS011;4237;47.030;15.396;2023-02-01T03:09:44;16.40;;;7.87;;
8399;SDS011;4237;47.030;15.396;2023-02-01T03:12:13;15.50;;;7.03;;
8399;SDS011;4237;47.030;15.396;2023-02-01T03:15:03;16.13;;;7.03;;
8399;SDS011;4237;47.030;15.396;2023-02-01T03:17:32;14.13;;;7.27;;
8399;SDS011;4237;47.030;15.396;2023-02-01T03:20:01;14.30;;;7.13;;
8399;SDS011;4237;47.030;15.396;2023-02-01T03:22:29;19.03;;;6.80;;
8399;SDS011;4237;47.030;15.396;2023-02-01T03:25:06;14.20;;;6.73;;
8399;SDS011;4237;47.030;15.396;2023-02-01T03:27:32;13.63;;;6.57;;
8399;SDS011;4237;47.030;15.396;2023-02-01T03:30:09;13.37;;;7.20;;
8399;SDS011;4237;47.030;15.396;2023-02-01T03:32:38;15.17;;;7.30;;
8399;SDS011;4237;47.030;15.396;2023-02-01T03:35:29;14.60;;;7.10;;
8399;SDS011;4237;47.030;15.396;2023-02-01T03:38:01;17.13;;;7.47;;
8399;SDS011;4237;47.030;15.396;2023-02-01T03:40:27;16.47;;;6.93;;
8399;SDS011;4237;47.030;15.396;2023-02-01T03:42:55;17.73;;;7.47;;
8399;SDS011;4237;47.030;15.396;2023-02-01T03:45:38;14.97;;;8.03;;
8399;SDS011;4237;47.030;15.396;2023-02-01T03:48:01;16.67;;;8.20;;
8399;SDS011;4237;47.030;15.396;2023-02-01T03:50:30;18.63;;;7.77;;
8399;SDS011;4237;47.030;15.396;2023-02-01T03:53:05;15.47;;;7.57;;
8399;SDS011;4237;47.030;15.396;2023-02-01T03:55:33;14.90;;;7.90;;
8399;SDS011;4237;47.030;15.396;2023-02-01T03:58:06;16.47;;;7.20;;
8399;SDS011;4237;47.030;15.396;2023-02-01T04:00:32;11.57;;;6.80;;
8399;SDS011;4237;47.030;15.396;2023-02-01T04:03:01;16.53;;;7.07;;
8399;SDS011;4237;47.030;15.396;2023-02-01T04:05:29;15.13;;;8.33;;
8399;SDS011;4237;47.030;15.396;2023-02-01T04:07:57;17.23;;;7.93;;
8399;SDS011;4237;47.030;15.396;2023-02-01T04:10:26;18.33;;;7.43;;
8399;SDS011;4237;47.030;15.396;2023-02-01T04:12:54;18.27;;;7.33;;
8399;SDS011;4237;47.030;15.396;2023-02-01T04:15:22;14.67;;;7.40;;
8399;SDS011;4237;47.030;15.396;2023-02-01T04:17:51;13.50;;;7.03;;
8399;SDS011;4237;47.030;15.396;2023-02-01T04:20:19;13.87;;;7.20;;
8399;SDS011;4237;47.030;15.396;2023-02-01T04:22:47;16.40;;;8.33;;
8399;SDS011;4237;47.030;15.396;2023-02-01T04:25:15;19.03;;;8.07;;
8399;SDS011;4237;47.030;15.396;2023-02-01T04:27:44;13.87;;;7.63;;
8399;SDS011;4237;47.030;15.396;2023-02-01T04:30:12;14.20;;;7.70;;
8399;SDS011;4237;47.030;15.396;2023-02-01T04:32:41;14.30;;;6.93;;
8399;SDS011;4237;47.030;15.396;2023-02-01T04:35:09;19.13;;;7.67;;
8399;SDS011;4237;47.030;15.396;2023-02-01T04:37:38;14.87;;;6.47;;
8399;SDS011;4237;47.030;15.396;2023-02-01T04:40:07;12.53;;;7.13;;
8399;SDS011;4237;47.030;15.396;2023-02-01T04:42:36;15.40;;;7.60;;
8399;SDS011;4237;47.030;15.396;2023-02-01T04:45:05;14.33;;;7.90;;
8399;SDS011;4237;47.030;15.396;2023-02-01T04:47:33;15.87;;;8.23;;
8399;SDS011;4237;47.030;15.396;2023-02-01T04:50:02;16.93;;;8.03;;
8399;SDS011;4237;47.030;15.396;2023-02-01T04:52:30;19.83;;;8.70;;
8399;SDS011;4237;47.030;15.396;2023-02-01T04:54:59;17.17;;;7.03;;
8399;SDS011;4237;47.030;15.396;2023-02-01T04:57:29;17.53;;;8.37;;
8399;SDS011;4237;47.030;15.396;2023-02-01T04:59:57;19.33;;;8.53;;
8399;SDS011;4237;47.030;15.396;2023-02-01T05:02:26;14.53;;;7.23;;
8399;SDS011;4237;47.030;15.396;2023-02-01T05:04:54;16.00;;;7.80;;
8399;SDS011;4237;47.030;15.396;2023-02-01T05:07:23;18.13;;;8.60;;
8399;SDS011;4237;47.030;15.396;2023-02-01T05:09:51;18.87;;;7.63;;
8399;SDS011;4237;47.030;15.396;2023-02-01T05:12:19;22.13;;;7.60;;
8399;SDS011;4237;47.030;15.396;2023-02-01T05:15:06;16.90;;;7.50;;
8399;SDS011;4237;47.030;15.396;2023-02-01T05:17:34;15.07;;;7.47;;
8399;SDS011;4237;47.030;15.396;2023-02-01T05:20:03;14.70;;;7.37;;
8399;SDS011;4237;47.030;15.396;2023-02-01T05:22:31;14.10;;;8.10;;
8399;SDS011;4237;47.030;15.396;2023-02-01T05:24:59;18.03;;;7.60;;
8399;SDS011;4237;47.030;15.396;2023-02-01T05:27:28;14.90;;;7.20;;
8399;SDS011;4237;47.030;15.396;2023-02-01T05:29:57;17.40;;;6.70;;
8399;SDS011;4237;47.030;15.396;2023-02-01T05:32:25;13.07;;;7.17;;
8399;SDS011;4237;47.030;15.396;2023-02-01T05:34:54;14.60;;;6.57;;
8399;SDS011;4237;47.030;15.396;2023-02-01T05:37:22;15.47;;;7.33;;
8399;SDS011;4237;47.030;15.396;2023-02-01T05:39:50;15.00;;;6.83;;
8399;SDS011;4237;47.030;15.396;2023-02-01T05:42:18;14.77;;;7.87;;
8399;SDS011;4237;47.030;15.396;2023-02-01T05:44:47;17.97;;;7.83;;
8399;SDS011;4237;47.030;15.396;2023-02-01T05:47:15;23.47;;;10.47;;
8399;SDS011;4237;47.030;15.396;2023-02-01T05:49:43;15.50;;;9.33;;
8399;SDS011;4237;47.030;15.396;2023-02-01T05:52:11;16.43;;;8.47;;
8399;SDS011;4237;47.030;15.396;2023-02-01T05:54:40;19.77;;;8.10;;
8399;SDS011;4237;47.030;15.396;2023-02-01T05:57:08;17.43;;;8.57;;
8399;SDS011;4237;47.030;15.396;2023-02-01T05:59:36;26.50;;;10.00;;
8399;SDS011;4237;47.030;15.396;2023-02-01T06:02:10;15.93;;;7.40;;
8399;SDS011;4237;47.030;15.396;2023-02-01T06:04:38;13.13;;;5.63;;
8399;SDS011;4237;47.030;15.396;2023-02-01T06:07:07;13.27;;;7.03;;
8399;SDS011;4237;47.030;15.396;2023-02-01T06:09:36;39.07;;;16.50;;
8399;SDS011;4237;47.030;15.396;2023-02-01T06:12:05;34.10;;;15.53;;
8399;SDS011;4237;47.030;15.396;2023-02-01T06:14:33;24.83;;;11.77;;
8399;SDS011;4237;47.030;15.396;2023-02-01T06:17:01;27.73;;;13.10;;
8399;SDS011;4237;47.030;15.396;2023-02-01T06:19:30;26.73;;;13.00;;
8399;SDS011;4237;47.030;15.396;2023-02-01T06:21:58;25.97;;;13.23;;
8399;SDS011;4237;47.030;15.396;2023-02-01T06:24:26;25.23;;;12.90;;
8399;SDS011;4237;47.030;15.396;2023-02-01T06:26:54;22.20;;;12.87;;
8399;SDS011;4237;47.030;15.396;2023-02-01T06:29:22;24.70;;;12.13;;
8399;SDS011;4237;47.030;15.396;2023-02-01T06:31:51;23.63;;;13.57;;
8399;SDS011;4237;47.030;15.396;2023-02-01T06:34:19;22.80;;;12.27;;
8399;SDS011;4237;47.030;15.396;2023-02-01T06:36:49;23.03;;;12.70;;
8399;SDS011;4237;47.030;15.396;2023-02-01T06:39:17;22.27;;;12.03;;
8399;SDS011;4237;47.030;15.396;2023-02-01T06:41:46;23.30;;;11.83;;
8399;SDS011;4237;47.030;15.396;2023-02-01T06:44:14;24.40;;;10.13;;
8399;SDS011;4237;47.030;15.396;2023-02-01T06:46:43;24.33;;;11.13;;
8399;SDS011;4237;47.030;15.396;2023-02-01T06:49:12;20.37;;;10.03;;
8399;SDS011;4237;47.030;15.396;2023-02-01T06:51:40;19.87;;;8.93;;
8399;SDS011;4237;47.030;15.396;2023-02-01T06:54:08;20.60;;;10.10;;
8399;SDS011;4237;47.030;15.396;2023-02-01T06:56:36;18.57;;;10.53;;
8399;SDS011;4237;47.030;15.396;2023-02-01T06:59:06;15.90;;;8.67;;
8399;SDS011;4237;47.030;15.396;2023-02-01T07:01:34;16.93;;;8.60;;
8399;SDS011;4237;47.030;15.396;2023-02-01T07:04:03;17.77;;;8.20;;
8399;SDS011;4237;47.030;15.396;2023-02-01T07:06:31;17.17;;;7.67;;
8399;SDS011;4237;47.030;15.396;2023-02-01T07:08:59;16.57;;;7.53;;
8399;SDS011;4237;47.030;15.396;2023-02-01T07:11:28;12.93;;;7.13;;
8399;SDS011;4237;47.030;15.396;2023-02-01T07:13:58;14.13;;;7.27;;
8399;SDS011;4237;47.030;15.396;2023-02-01T07:16:26;15.37;;;7.23;;
8399;SDS011;4237;47.030;15.396;2023-02-01T07:18:56;13.83;;;6.27;;
8399;SDS011;4237;47.030;15.396;2023-02-01T07:21:24;11.17;;;6.13;;
8399;SDS011;4237;47.030;15.396;2023-02-01T07:23:52;11.33;;;6.53;;
8399;SDS011;4237;47.030;15.396;2023-02-01T07:26:20;7.07;;;4.27;;
8399;SDS011;4237;47.030;15.396;2023-02-01T07:28:49;9.20;;;5.30;;
8399;SDS011;4237;47.030;15.396;2023-02-01T07:31:18;9.17;;;4.80;;
8399;SDS011;4237;47.030;15.396;2023-02-01T07:33:48;8.67;;;4.63;;
8399;SDS011;4237;47.030;15.396;2023-02-01T07:36:19;10.50;;;5.40;;
8399;SDS011;4237;47.030;15.396;2023-02-01T07:38:48;7.07;;;5.37;;
8399;SDS011;4237;47.030;15.396;2023-02-01T07:41:18;17.53;;;11.80;;
8399;SDS011;4237;47.030;15.396;2023-02-01T07:43:46;11.17;;;7.60;;
8399;SDS011;4237;47.030;15.396;2023-02-01T07:46:14;10.13;;;8.03;;
8399;SDS011;4237;47.030;15.396;2023-02-01T07:48:43;10.93;;;6.77;;
8399;SDS011;4237;47.030;15.396;2023-02-01T07:51:12;8.10;;;5.83;;
8399;SDS011;4237;47.030;15.396;2023-02-01T07:53:40;11.70;;;5.27;;
8399;SDS011;4237;47.030;15.396;2023-02-01T07:56:20;8.37;;;6.17;;
8399;SDS011;4237;47.030;15.396;2023-02-01T07:58:48;10.20;;;5.40;;
8399;SDS011;4237;47.030;15.396;2023-02-01T08:01:17;14.03;;;6.60;;
8399;SDS011;4237;47.030;15.396;2023-02-01T08:03:49;11.47;;;6.87;;
8399;SDS011;4237;47.030;15.396;2023-02-01T08:06:18;7.33;;;4.90;;
8399;SDS011;4237;47.030;15.396;2023-02-01T08:08:49;8.43;;;5.47;;
8399;SDS011;4237;47.030;15.396;2023-02-01T08:11:18;6.90;;;4.70;;
8399;SDS011;4237;47.030;15.396;2023-02-01T08:13:48;5.17;;;4.03;;
8399;SDS011;4237;47.030;15.396;2023-02-01T08:16:17;4.73;;;3.93;;
8399;SDS011;4237;47.030;15.396;2023-02-01T08:18:45;6.17;;;3.90;;
8399;SDS011;4237;47.030;15.396;2023-02-01T08:21:16;9.63;;;4.33;;
8399;SDS011;4237;47.030;15.396;2023-02-01T08:23:47;6.33;;;4.12;;
8399;SDS011;4237;47.030;15.396;2023-02-01T08:26:20;6.70;;;4.30;;
8399;SDS011;4237;47.030;15.396;2023-02-01T08:28:55;9.00;;;4.20;;
8399;SDS011;4237;47.030;15.396;2023-02-01T08:31:27;5.75;;;3.95;;
8399;SDS011;4237;47.030;15.396;2023-02-01T08:33:58;6.65;;;3.92;;
8399;SDS011;4237;47.030;15.396;2023-02-01T08:36:29;6.20;;;3.25;;
8399;SDS011;4237;47.030;15.396;2023-02-01T08:38:58;4.35;;;3.20;;
8399;SDS011;4237;47.030;15.396;2023-02-01T08:41:28;5.47;;;3.20;;
8399;SDS011;4237;47.030;15.396;2023-02-01T08:43:58;4.28;;;2.80;;
8399;SDS011;4237;47.030;15.396;2023-02-01T08:46:26;5.20;;;3.08;;
8399;SDS011;4237;47.030;15.396;2023-02-01T08:48:55;8.40;;;3.87;;
8399;SDS011;4237;47.030;15.396;2023-02-01T08:51:24;5.12;;;3.85;;
8399;SDS011;4237;47.030;15.396;2023-02-01T08:53:53;6.95;;;3.50;;
8399;SDS011;4237;47.030;15.396;2023-02-01T08:56:22;5.22;;;3.40;;
8399;SDS011;4237;47.030;15.396;2023-02-01T08:58:50;7.92;;;3.62;;
8399;SDS011;4237;47.030;15.396;2023-02-01T09:01:19;4.45;;;3.65;;
8399;SDS011;4237;47.030;15.396;2023-02-01T09:03:47;6.58;;;3.72;;
8399;SDS011;4237;47.030;15.396;2023-02-01T09:06:16;7.25;;;3.50;;
8399;SDS011;4237;47.030;15.396;2023-02-01T09:08:45;5.60;;;3.50;;
8399;SDS011;4237;47.030;15.396;2023-02-01T09:11:18;11.03;;;3.60;;
8399;SDS011;4237;47.030;15.396;2023-02-01T09:13:46;7.47;;;3.65;;
8399;SDS011;4237;47.030;15.396;2023-02-01T09:16:15;5.30;;;3.85;;
8399;SDS011;4237;47.030;15.396;2023-02-01T09:18:44;9.50;;;4.05;;
8399;SDS011;4237;47.030;15.396;2023-02-01T09:21:13;9.80;;;4.22;;
8399;SDS011;4237;47.030;15.396;2023-02-01T09:23:41;7.03;;;4.25;;
8399;SDS011;4237;47.030;15.396;2023-02-01T09:26:10;7.53;;;4.58;;
8399;SDS011;4237;47.030;15.396;2023-02-01T09:28:38;10.20;;;5.77;;
8399;SDS011;4237;47.030;15.396;2023-02-01T09:31:07;9.75;;;4.60;;
8399;SDS011;4237;47.030;15.396;2023-02-01T09:33:36;16.20;;;4.80;;
8399;SDS011;4237;47.030;15.396;2023-02-01T09:36:05;8.25;;;4.37;;
8399;SDS011;4237;47.030;15.396;2023-02-01T09:38:34;9.15;;;4.65;;
8399;SDS011;4237;47.030;15.396;2023-02-01T09:41:06;17.17;;;6.95;;
8399;SDS011;4237;47.030;15.396;2023-02-01T09:43:53;21.43;;;7.43;;
8399;SDS011;4237;47.030;15.396;2023-02-01T09:46:28;23.20;;;8.47;;
8399;SDS011;4237;47.030;15.396;2023-02-01T09:49:04;23.17;;;8.80;;
8399;SDS011;4237;47.030;15.396;2023-02-01T09:51:32;25.83;;;8.50;;
8399;SDS011;4237;47.030;15.396;2023-02-01T09:54:04;22.70;;;8.30;;
8399;SDS011;4237;47.030;15.396;2023-02-01T09:56:41;33.13;;;8.30;;
8399;SDS011;4237;47.030;15.396;2023-02-01T09:59:28;25.70;;;8.00;;
8399;SDS011;4237;47.030;15.396;2023-02-01T10:02:00;22.80;;;8.87;;
8399;SDS011;4237;47.030;15.396;2023-02-01T10:04:31;17.27;;;8.20;;
8399;SDS011;4237;47.030;15.396;2023-02-01T10:07:12;20.17;;;9.33;;
8399;SDS011;4237;47.030;15.396;2023-02-01T10:12:36;24.20;;;9.20;;
8399;SDS011;4237;47.030;15.396;2023-02-01T10:15:14;31.47;;;9.27;;
8399;SDS011;4237;47.030;15.396;2023-02-01T10:18:05;21.37;;;9.23;;
8399;SDS011;4237;47.030;15.396;2023-02-01T10:23:53;17.17;;;8.17;;
8399;SDS011;4237;47.030;15.396;2023-02-01T10:26:24;18.93;;;8.20;;
8399;SDS011;4237;47.030;15.396;2023-02-01T10:28:58;21.17;;;7.83;;
8399;SDS011;4237;47.030;15.396;2023-02-01T10:31:35;19.85;;;7.75;;
8399;SDS011;4237;47.030;15.396;2023-02-01T10:34:06;16.50;;;6.67;;
8399;SDS011;4237;47.030;15.396;2023-02-01T10:36:41;11.45;;;6.53;;
8399;SDS011;4237;47.030;15.396;2023-02-01T10:39:11;16.25;;;6.72;;
8399;SDS011;4237;47.030;15.396;2023-02-01T10:41:42;15.75;;;7.42;;
8399;SDS011;4237;47.030;15.396;2023-02-01T10:44:14;16.12;;;7.00;;
8399;SDS011;4237;47.030;15.396;2023-02-01T10:46:45;17.25;;;7.25;;
8399;SDS011;4237;47.030;15.396;2023-02-01T10:52:02;9.55;;;4.35;;
8399;SDS011;4237;47.030;15.396;2023-02-01T10:54:37;13.28;;;4.25;;
8399;SDS011;4237;47.030;15.396;2023-02-01T10:57:08;20.82;;;5.17;;
8399;SDS011;4237;47.030;15.396;2023-02-01T10:59:39;19.95;;;4.67;;
8399;SDS011;4237;47.030;15.396;2023-02-01T11:07:32;13.98;;;4.10;;
8399;SDS011;4237;47.030;15.396;2023-02-01T11:10:02;18.77;;;5.00;;
8399;SDS011;4237;47.030;15.396;2023-02-01T11:12:33;18.17;;;4.37;;
8399;SDS011;4237;47.030;15.396;2023-02-01T11:15:22;12.90;;;4.30;;
8399;SDS011;4237;47.030;15.396;2023-02-01T11:17:51;12.03;;;4.60;;
8399;SDS011;4237;47.030;15.396;2023-02-01T11:23:01;14.63;;;4.87;;
8399;SDS011;4237;47.030;15.396;2023-02-01T11:25:32;7.90;;;3.73;;
8399;SDS011;4237;47.030;15.396;2023-02-01T11:28:03;12.73;;;4.63;;
8399;SDS011;4237;47.030;15.396;2023-02-01T11:30:38;16.10;;;4.33;;
8399;SDS011;4237;47.030;15.396;2023-02-01T11:33:05;10.27;;;4.10;;
8399;SDS011;4237;47.030;15.396;2023-02-01T11:35:38;8.07;;;4.07;;
8399;SDS011;4237;47.030;15.396;2023-02-01T11:38:29;12.37;;;4.27;;
8399;SDS011;4237;47.030;15.396;2023-02-01T11:40:46;12.53;;;4.57;;
8399;SDS011;4237;47.030;15.396;2023-02-01T11:43:25;5.90;;;3.77;;
8399;SDS011;4237;47.030;15.396;2023-02-01T11:45:57;18.33;;;4.50;;
8399;SDS011;4237;47.030;15.396;2023-02-01T11:48:28;7.67;;;4.10;;
8399;SDS011;4237;47.030;15.396;2023-02-01T11:56:39;5.37;;;2.70;;
8399;SDS011;4237;47.030;15.396;2023-02-01T12:02:08;0.90;;;0.62;;
8399;SDS011;4237;47.030;15.396;2023-02-01T12:13:14;0.50;;;0.50;;
8399;SDS011;4237;47.030;15.396;2023-02-01T12:19:01;1.70;;;0.60;;
8399;SDS011;4237;47.030;15.396;2023-02-01T12:27:10;0.57;;;0.47;;
8399;SDS011;4237;47.030;15.396;2023-02-01T12:38:20;1.95;;;0.30;;
8399;SDS011;4237;47.030;15.396;2023-02-01T12:41:08;1.15;;;0.50;;
8399;SDS011;4237;47.030;15.396;2023-02-01T12:46:21;0.30;;;0.30;;
8399;SDS011;4237;47.030;15.396;2023-02-01T12:49:21;0.33;;;0.30;;
8399;SDS011;4237;47.030;15.396;2023-02-01T12:51:37;0.60;;;0.30;;
8399;SDS011;4237;47.030;15.396;2023-02-01T12:56:57;0.20;;;0.20;;
8399;SDS011;4237;47.030;15.396;2023-02-01T13:02:08;0.23;;;0.23;;
8399;SDS011;4237;47.030;15.396;2023-02-01T13:04:38;0.50;;;0.30;;
8399;SDS011;4237;47.030;15.396;2023-02-01T13:07:14;3.30;;;0.50;;
8399;SDS011;4237;47.030;15.396;2023-02-01T13:09:59;1.02;;;0.30;;
8399;SDS011;4237;47.030;15.396;2023-02-01T13:12:32;0.20;;;0.20;;
8399;SDS011;4237;47.030;15.396;2023-02-01T13:17:57;1.20;;;0.10;;
8399;SDS011;4237;47.030;15.396;2023-02-01T13:20:45;1.12;;;0.10;;
8399;SDS011;4237;47.030;15.396;2023-02-01T13:23:27;2.40;;;0.53;;
8399;SDS011;4237;47.030;15.396;2023-02-01T13:25:57;0.73;;;0.40;;
8399;SDS011;4237;47.030;15.396;2023-02-01T13:28:28;4.33;;;1.10;;
8399;SDS011;4237;47.030;15.396;2023-02-01T13:31:36;0.20;;;0.20;;
8399;SDS011;4237;47.030;15.396;2023-02-01T13:42:54;0.23;;;0.20;;
8399;SDS011;4237;47.030;15.396;2023-02-01T13:45:26;0.57;;;0.27;;
8399;SDS011;4237;47.030;15.396;2023-02-01T13:48:02;0.27;;;0.27;;
8399;SDS011;4237;47.030;15.396;2023-02-01T13:50:32;0.63;;;0.30;;
8399;SDS011;4237;47.030;15.396;2023-02-01T13:55:45;0.20;;;0.10;;
8399;SDS011;4237;47.030;15.396;2023-02-01T13:58:29;0.20;;;0.20;;
8399;SDS011;4237;47.030;15.396;2023-02-01T14:03:55;0.37;;;0.35;;
8399;SDS011;4237;47.030;15.396;2023-02-01T14:19:25;1.13;;;0.50;;
8399;SDS011;4237;47.030;15.396;2023-02-01T14:21:59;2.73;;;0.57;;
8399;SDS011;4237;47.030;15.396;2023-02-01T14:24:31;1.17;;;0.40;;
8399;SDS011;4237;47.030;15.396;2023-02-01T14:27:25;3.03;;;0.40;;
8399;SDS011;4237;47.030;15.396;2023-02-01T14:29:37;1.33;;;0.60;;
8399;SDS011;4237;47.030;15.396;2023-02-01T14:32:15;0.20;;;0.20;;
8399;SDS011;4237;47.030;15.396;2023-02-01T14:47:50;1.23;;;0.40;;
8399;SDS011;4237;47.030;15.396;2023-02-01T14:55:44;1.13;;;0.70;;
8399;SDS011;4237;47.030;15.396;2023-02-01T14:58:18;1.20;;;0.70;;
8399;SDS011;4237;47.030;15.396;2023-02-01T15:00:54;3.03;;;0.50;;
8399;SDS011;4237;47.030;15.396;2023-02-01T15:06:23;0.77;;;0.40;;
8399;SDS011;4237;47.030;15.396;2023-02-01T15:08:51;0.60;;;0.50;;
8399;SDS011;4237;47.030;15.396;2023-02-01T15:11:22;2.27;;;0.40;;
8399;SDS011;4237;47.030;15.396;2023-02-01T15:13:52;0.40;;;0.40;;
8399;SDS011;4237;47.030;15.396;2023-02-01T15:16:24;0.30;;;0.30;;
8399;SDS011;4237;47.030;15.396;2023-02-01T15:19:10;1.07;;;0.63;;
8399;SDS011;4237;47.030;15.396;2023-02-01T15:21:44;1.17;;;0.60;;
8399;SDS011;4237;47.030;15.396;2023-02-01T15:24:19;0.60;;;0.40;;
8399;SDS011;4237;47.030;15.396;2023-02-01T15:26:58;0.83;;;0.40;;
8399;SDS011;4237;47.030;15.396;2023-02-01T15:29:30;0.60;;;0.37;;
8399;SDS011;4237;47.030;15.396;2023-02-01T15:32:00;0.20;;;0.20;;
8399;SDS011;4237;47.030;15.396;2023-02-01T15:34:45;0.60;;;0.30;;
8399;SDS011;4237;47.030;15.396;2023-02-01T15:37:15;0.90;;;0.40;;
8399;SDS011;4237;47.030;15.396;2023-02-01T15:40:14;0.80;;;0.40;;
8399;SDS011;4237;47.030;15.396;2023-02-01T15:42:52;1.40;;;0.30;;
8399;SDS011;4237;47.030;15.396;2023-02-01T15:45:29;2.73;;;0.50;;
8399;SDS011;4237;47.030;15.396;2023-02-01T15:47:54;0.77;;;0.50;;
8399;SDS011;4237;47.030;15.396;2023-02-01T15:50:26;1.60;;;0.93;;
8399;SDS011;4237;47.030;15.396;2023-02-01T15:52:57;0.70;;;0.50;;
8399;SDS011;4237;47.030;15.396;2023-02-01T15:58:07;0.73;;;0.40;;
8399;SDS011;4237;47.030;15.396;2023-02-01T16:00:47;0.50;;;0.40;;
8399;SDS011;4237;47.030;15.396;2023-02-01T16:03:32;1.70;;;0.50;;
8399;SDS011;4237;47.030;15.396;2023-02-01T16:06:08;0.90;;;0.40;;
8399;SDS011;4237;47.030;15.396;2023-02-01T16:11:31;0.80;;;0.40;;
8399;SDS011;4237;47.030;15.396;2023-02-01T16:14:01;0.63;;;0.30;;
8399;SDS011;4237;47.030;15.396;2023-02-01T16:16:30;0.53;;;0.40;;
8399;SDS011;4237;47.030;15.396;2023-02-01T16:18:58;1.80;;;0.40;;
8399;SDS011;4237;47.030;15.396;2023-02-01T16:21:27;1.40;;;0.57;;
8399;SDS011;4237;47.030;15.396;2023-02-01T16:23:56;1.13;;;0.53;;
8399;SDS011;4237;47.030;15.396;2023-02-01T16:26:27;2.40;;;0.87;;
8399;SDS011;4237;47.030;15.396;2023-02-01T16:28:56;2.27;;;0.90;;
8399;SDS011;4237;47.030;15.396;2023-02-01T16:31:28;0.87;;;0.50;;
8399;SDS011;4237;47.030;15.396;2023-02-01T16:33:58;1.20;;;0.60;;
8399;SDS011;4237;47.030;15.396;2023-02-01T16:36:27;0.83;;;0.67;;
8399;SDS011;4237;47.030;15.396;2023-02-01T16:38:55;0.20;;;0.20;;
8399;SDS011;4237;47.030;15.396;2023-02-01T16:41:25;0.67;;;0.30;;
8399;SDS011;4237;47.030;15.396;2023-02-01T16:43:55;0.90;;;0.40;;
8399;SDS011;4237;47.030;15.396;2023-02-01T16:46:25;0.80;;;0.67;;
8399;SDS011;4237;47.030;15.396;2023-02-01T16:49:02;1.67;;;0.63;;
8399;SDS011;4237;47.030;15.396;2023-02-01T16:51:30;0.77;;;0.40;;
8399;SDS011;4237;47.030;15.396;2023-02-01T16:54:01;0.37;;;0.30;;
8399;SDS011;4237;47.030;15.396;2023-02-01T16:56:32;1.20;;;0.67;;
8399;SDS011;4237;47.030;15.396;2023-02-01T16:59:02;0.90;;;0.60;;
8399;SDS011;4237;47.030;15.396;2023-02-01T17:01:32;1.30;;;1.10;;
8399;SDS011;4237;47.030;15.396;2023-02-01T17:04:03;1.43;;;1.10;;
8399;SDS011;4237;47.030;15.396;2023-02-01T17:06:32;1.43;;;0.90;;
8399;SDS011;4237;47.030;15.396;2023-02-01T17:09:03;0.93;;;0.73;;
8399;SDS011;4237;47.030;15.396;2023-02-01T17:11:33;1.20;;;0.83;;
8399;SDS011;4237;47.030;15.396;2023-02-01T17:14:13;1.13;;;0.90;;
8399;SDS011;4237;47.030;15.396;2023-02-01T17:16:45;0.97;;;0.60;;
8399;SDS011;4237;47.030;15.396;2023-02-01T17:19:20;1.30;;;0.70;;
8399;SDS011;4237;47.030;15.396;2023-02-01T17:21:49;1.43;;;1.00;;
8399;SDS011;4237;47.030;15.396;2023-02-01T17:24:26;0.83;;;0.50;;
8399;SDS011;4237;47.030;15.396;2023-02-01T17:26:53;3.20;;;0.60;;
8399;SDS011;4237;47.030;15.396;2023-02-01T17:29:23;1.63;;;1.00;;
8399;SDS011;4237;47.030;15.396;2023-02-01T17:31:52;1.37;;;0.73;;